Main page
METAR-TAF:

METAR-TAF

Airports :

Schaffen Air Base

Diest, Belgium

latitude: 51-00N, longitude: 005-04E, elevation: 30 m

Current weather observation

The report was made 29 minutes ago, at 18:55 UTC
Wind 15 kt from the South
Temperature 5°C
Humidity 87%
Pressure 1005 hPa
Visibility 10 km or more
light rain

METAR: EBDT 281855Z AUTO 19015KT 9999 -RA FEW018/// BKN023/// BKN028/// 05/03 Q1005 WHT

Time: 20:24 (19:24 UTC)


TAF: missing

Weather observations and forecasts of more than 4000 airports (METAR and TAF reports).

The available stations are represented by yellow and red dots on the map.

Hover mouse over dot to see the name of the station.

Then click to see weather observations and forecasts.

To change the map : click on the green buttons with a black cross to zoom in, on the green button with a dash to zoom out, or on the green arrows for adjacent maps.


METAR-TAF: